Time;durP1;ratioP1;P1;durP2;ratioP2;P2;SDS_P1;SDS_P2;PMS_P1;PMS_P2;Temp;Humidity;BMP_temperature;BMP_pressure;BME280_temperature;BME280_humidity;BME280_pressure;Samples;Min_cycle;Max_cycle;Signal;HPM_P1;HPM_P2
2023/10/20 00:00:41;;;;;;;148.82;19.02;;;;;;;12.35;75.30;97218.78;4992339;28;20136;-82
2023/10/20 00:03:08;;;;;;;85.30;17.35;;;;;;;12.33;75.51;97213.66;4982855;28;20463;-81
2023/10/20 00:05:35;;;;;;;130.23;21.88;;;;;;;12.32;75.27;97208.53;4972535;28;20495;-83
2023/10/20 00:08:02;;;;;;;129.63;18.23;;;;;;;12.29;75.62;97209.69;4971206;28;20516;-82
2023/10/20 00:10:36;;;;;;;146.40;19.45;;;;;;;12.27;75.58;97221.38;4972839;28;20046;-84
2023/10/20 00:13:04;;;;;;;127.85;17.95;;;;;;;12.25;75.39;97224.19;4983650;28;20648;-84
2023/10/20 00:15:33;;;;;;;103.22;18.98;;;;;;;12.24;75.54;97219.91;4992040;28;20050;-82
2023/10/20 00:18:01;;;;;;;112.30;17.80;;;;;;;12.22;75.73;97224.50;4991260;28;20557;-82
2023/10/20 00:20:28;;;;;;;114.93;18.35;;;;;;;12.20;75.72;97216.78;4991048;28;20057;-85
2023/10/20 00:22:55;;;;;;;105.75;18.20;;;;;;;12.20;75.68;97215.94;4984303;28;20057;-82
2023/10/20 00:25:22;;;;;;;143.45;18.15;;;;;;;12.18;75.69;97207.38;4992075;28;20109;-85
2023/10/20 00:27:49;;;;;;;106.70;18.00;;;;;;;12.16;75.63;97204.91;4991650;28;20093;-82
2023/10/20 00:30:15;;;;;;;96.07;17.30;;;;;;;12.16;75.34;97209.31;4990415;28;20537;-82
2023/10/20 00:32:43;;;;;;;175.10;19.45;;;;;;;12.14;75.61;97209.47;4991540;28;20454;-82
2023/10/20 00:35:13;;;;;;;111.10;19.20;;;;;;;12.13;75.29;97205.22;4977103;28;20126;-81
2023/10/20 00:37:40;;;;;;;132.13;18.15;;;;;;;12.12;75.55;97209.63;4971218;28;20054;-81
2023/10/20 00:40:11;;;;;;;87.25;16.70;;;;;;;12.10;75.48;97198.44;4971103;28;20042;-82
2023/10/20 00:42:38;;;;;;;111.28;17.17;;;;;;;12.09;75.64;97188.06;4972018;28;20130;-83
2023/10/20 00:45:06;;;;;;;119.22;16.88;;;;;;;12.07;75.71;97169.75;4989991;28;20130;-82
2023/10/20 00:47:35;;;;;;;114.10;17.48;;;;;;;12.06;75.61;97160.19;4990232;28;20046;-84
2023/10/20 00:50:04;;;;;;;140.52;18.40;;;;;;;12.05;75.71;97157.69;4991806;28;20081;-82
2023/10/20 00:52:35;;;;;;;121.13;16.95;;;;;;;12.04;75.60;97158.69;4991662;28;20069;-83
2023/10/20 00:55:03;;;;;;;118.30;16.52;;;;;;;12.04;75.61;97150.78;4990729;28;20050;-82
2023/10/20 00:57:30;;;;;;;148.88;15.85;;;;;;;12.03;75.70;97154.41;4991569;28;20050;-82
2023/10/20 00:59:56;;;;;;;134.43;16.40;;;;;;;12.01;75.55;97159.84;4991466;28;20051;-84
2023/10/20 01:02:24;;;;;;;65.13;14.02;;;;;;;12.01;75.57;97164.28;4991594;28;20520;-81
2023/10/20 01:04:51;;;;;;;135.23;16.52;;;;;;;11.98;75.64;97160.97;4990747;28;20068;-82
2023/10/20 01:07:17;;;;;;;95.90;14.20;;;;;;;11.98;75.96;97160.16;4992161;28;20068;-82
2023/10/20 01:09:44;;;;;;;89.88;13.80;;;;;;;11.97;75.60;97147.97;4991111;28;20078;-82
2023/10/20 01:12:11;;;;;;;85.70;14.05;;;;;;;11.94;75.57;97143.84;4995315;28;20069;-83
2023/10/20 01:14:37;;;;;;;116.43;15.27;;;;;;;11.93;75.74;97157.19;4987356;28;20050;-81
2023/10/20 01:17:04;;;;;;;54.05;13.63;;;;;;;11.91;75.86;97153.84;4975862;28;20062;-82
2023/10/20 01:19:32;;;;;;;123.13;15.40;;;;;;;11.90;75.77;97147.78;4974167;28;20121;-81
2023/10/20 01:21:59;;;;;;;87.55;13.98;;;;;;;11.88;76.05;97133.91;4974219;28;20475;-82
2023/10/20 01:24:26;;;;;;;79.18;14.05;;;;;;;11.88;76.13;97136.56;4979229;28;20066;-81
2023/10/20 01:26:53;;;;;;;117.22;14.05;;;;;;;11.88;76.02;97141.03;4993585;28;20454;-82
2023/10/20 01:29:19;;;;;;;98.63;13.95;;;;;;;11.86;76.04;97135.91;4994663;28;20141;-81
2023/10/20 01:31:46;;;;;;;126.57;14.82;;;;;;;11.85;76.06;97132.44;4994797;28;20078;-82
2023/10/20 01:34:13;;;;;;;87.88;13.88;;;;;;;11.85;75.95;97115.81;4994784;28;20056;-81
2023/10/20 01:36:40;;;;;;;161.07;16.15;;;;;;;11.85;75.94;97107.91;4994753;28;20054;-82
2023/10/20 01:39:08;;;;;;;137.80;15.57;;;;;;;11.84;76.07;97087.78;4993945;28;20160;-82
2023/10/20 01:41:34;;;;;;;112.38;14.43;;;;;;;11.85;76.00;97089.44;4994767;28;20050;-82
2023/10/20 01:44:01;;;;;;;140.65;15.25;;;;;;;11.84;76.04;97079.88;4994702;28;20109;-85
2023/10/20 01:46:28;;;;;;;105.63;14.60;;;;;;;11.83;75.99;97086.97;4994724;28;20053;-82
2023/10/20 01:48:55;;;;;;;109.55;14.13;;;;;;;11.83;76.08;97088.78;4993339;28;20046;-81
2023/10/20 01:51:21;;;;;;;85.15;13.43;;;;;;;11.83;76.13;97078.22;4994834;28;20086;-81
2023/10/20 01:53:48;;;;;;;150.13;15.02;;;;;;;11.83;76.15;97079.06;4994300;28;20049;-82
2023/10/20 01:56:14;;;;;;;103.00;15.55;;;;;;;11.83;76.09;97086.97;4994545;28;20088;-82
2023/10/20 01:58:41;;;;;;;100.75;13.98;;;;;;;11.83;76.17;97078.22;4992684;28;20050;-81
2023/10/20 02:01:08;;;;;;;99.53;15.13;;;;;;;11.82;76.14;97061.59;4976162;28;20502;-82
2023/10/20 02:03:35;;;;;;;59.05;12.25;;;;;;;11.81;76.18;97067.84;4974089;28;20058;-81
2023/10/20 02:06:02;;;;;;;134.35;14.48;;;;;;;11.83;76.11;97067.69;4994354;28;20050;-81
2023/10/20 02:08:28;;;;;;;60.72;12.98;;;;;;;11.82;75.94;97076.59;4993001;28;20133;-81
2023/10/20 02:10:54;;;;;;;62.20;13.55;;;;;;;11.81;75.98;97070.47;4977401;28;20061;-81
2023/10/20 02:13:21;;;;;;;95.85;13.80;;;;;;;11.82;76.26;97068.69;4974702;28;20054;-82
2023/10/20 02:15:50;;;;;;;117.80;15.02;;;;;;;11.81;76.12;97062.56;4973359;28;20142;-83
2023/10/20 02:18:17;;;;;;;95.32;14.60;;;;;;;11.80;76.11;97057.47;4973841;28;20063;-82
2023/10/20 02:20:44;;;;;;;151.25;15.40;;;;;;;11.79;76.25;97056.66;4979394;28;20073;-81
2023/10/20 02:23:11;;;;;;;146.55;16.58;;;;;;;11.79;76.03;97040.84;4993610;28;20093;-83
2023/10/20 02:25:38;;;;;;;122.95;15.73;;;;;;;11.79;76.09;97034.75;4974446;28;20486;-81
2023/10/20 02:28:04;;;;;;;101.97;14.15;;;;;;;11.79;76.10;97032.94;4989121;28;20050;-81
2023/10/20 02:30:32;;;;;;;76.25;14.20;;;;;;;11.78;76.12;97031.28;4981388;28;20137;-81
2023/10/20 02:33:00;;;;;;;101.38;14.98;;;;;;;11.78;75.99;97028.63;4974371;28;20137;-83
2023/10/20 02:35:26;;;;;;;69.70;12.77;;;;;;;11.76;75.96;97020.09;4974378;28;20051;-82
2023/10/20 02:37:53;;;;;;;61.42;13.88;;;;;;;11.75;75.87;97012.34;4974180;28;20054;-82
2023/10/20 02:40:20;;;;;;;118.25;14.63;;;;;;;11.73;76.05;97009.84;4977040;28;20567;-81
2023/10/20 02:42:46;;;;;;;83.25;14.10;;;;;;;11.72;76.16;97022.22;4993442;28;20054;-81
2023/10/20 02:45:13;;;;;;;97.60;13.88;;;;;;;11.71;76.03;97014.47;4992046;28;20475;-82
2023/10/20 02:47:39;;;;;;;100.70;14.82;;;;;;;11.71;76.15;97019.75;4993260;28;20181;-82
2023/10/20 02:50:07;;;;;;;91.20;15.25;;;;;;;11.70;76.21;97018.91;4993531;28;20419;-81
2023/10/20 02:52:34;;;;;;;80.43;13.57;;;;;;;11.69;76.13;97005.91;4975065;28;20129;-81
2023/10/20 02:55:00;;;;;;;107.22;14.50;;;;;;;11.68;76.26;97006.91;4973848;28;20057;-82
2023/10/20 02:57:27;;;;;;;74.30;14.25;;;;;;;11.67;75.98;96994.72;4973721;28;20046;-82
2023/10/20 02:59:53;;;;;;;86.53;14.35;;;;;;;11.65;76.02;96991.41;4972870;28;20520;-84
2023/10/20 03:02:20;;;;;;;72.55;12.68;;;;;;;11.65;76.20;96988.75;4972512;28;20492;-82
2023/10/20 03:04:47;;;;;;;129.95;14.80;;;;;;;11.63;76.27;96980.22;4982173;28;20051;-81
2023/10/20 03:07:13;;;;;;;139.50;15.85;;;;;;;11.63;76.19;96977.59;4993084;28;20051;-81
2023/10/20 03:09:40;;;;;;;60.35;12.90;;;;;;;11.60;76.17;96966.38;4993174;28;20057;-81
2023/10/20 03:12:06;;;;;;;100.95;14.82;;;;;;;11.60;76.12;96965.56;4992972;28;20086;-83
2023/10/20 03:14:34;;;;;;;91.15;13.35;;;;;;;11.58;75.87;96965.72;4980992;28;20458;-82
2023/10/20 03:17:01;;;;;;;81.78;13.63;;;;;;;11.57;75.98;96961.44;4972335;28;20117;-83
2023/10/20 03:19:28;;;;;;;86.93;13.65;;;;;;;11.55;76.12;96960.78;4973349;28;20526;-81
2023/10/20 03:21:55;;;;;;;90.90;14.20;;;;;;;11.55;76.01;96949.44;4973411;28;20082;-81
2023/10/20 03:24:21;;;;;;;114.43;18.02;;;;;;;11.52;76.30;96947.94;4973573;28;20050;-82
2023/10/20 03:26:48;;;;;;;111.53;14.73;;;;;;;11.51;76.25;96940.19;4977482;28;20088;-83
2023/10/20 03:29:15;;;;;;;92.85;15.88;;;;;;;11.49;76.14;96929.81;4973539;28;20407;-82
2023/10/20 03:31:42;;;;;;;106.93;14.77;;;;;;;11.48;76.20;96938.72;4984287;28;20093;-84
2023/10/20 03:34:08;;;;;;;123.47;15.98;;;;;;;11.46;76.50;96936.25;4971643;28;20055;-83
2023/10/20 03:36:35;;;;;;;59.60;13.20;;;;;;;11.46;76.31;96938.03;4973020;28;20058;-81
2023/10/20 03:39:01;;;;;;;83.78;13.77;;;;;;;11.46;76.18;96930.13;4991452;28;20086;-81
2023/10/20 03:41:29;;;;;;;56.95;12.95;;;;;;;11.43;76.05;96928.66;4991765;28;20130;-82
2023/10/20 03:43:55;;;;;;;74.72;14.45;;;;;;;11.43;76.07;96926.03;4992364;28;20042;-83
2023/10/20 03:46:23;;;;;;;79.63;14.02;;;;;;;11.41;76.28;96914.84;4991275;28;20042;-81
2023/10/20 03:48:49;;;;;;;88.53;14.15;;;;;;;11.41;76.28;96911.38;4973315;28;20057;-82
2023/10/20 03:51:17;;;;;;;135.18;16.10;;;;;;;11.39;76.26;96902.81;4971951;28;20555;-82
2023/10/20 03:53:47;;;;;;;45.00;13.02;;;;;;;11.38;76.16;96898.53;4972816;28;20140;-82
2023/10/20 03:56:14;;;;;;;50.15;14.20;;;;;;;11.34;76.17;96888.31;4973163;28;20057;-82
2023/10/20 03:58:42;;;;;;;106.63;15.45;;;;;;;11.34;76.37;96893.56;4973230;28;20423;-83
2023/10/20 04:01:09;;;;;;;102.85;16.20;;;;;;;11.33;76.34;96894.56;4971866;28;20053;-82
2023/10/20 04:03:35;;;;;;;89.05;13.70;;;;;;;11.33;76.37;96899.03;4971770;28;20070;-85
2023/10/20 04:06:06;;;;;;;55.78;13.25;;;;;;;11.31;76.31;96883.41;4972918;28;20058;-82
2023/10/20 04:08:34;;;;;;;94.82;13.85;;;;;;;11.31;76.28;96872.84;4981720;28;20060;-83
2023/10/20 04:11:00;;;;;;;79.05;14.48;;;;;;;11.30;76.09;96857.22;4992389;28;20081;-81
2023/10/20 04:13:32;;;;;;;81.75;14.07;;;;;;;11.28;76.45;96860.00;4992384;28;20065;-82
2023/10/20 04:16:12;;;;;;;46.30;13.52;;;;;;;11.24;76.38;96866.59;5060202;23;20020;-77
2023/10/20 04:18:43;;;;;;;48.28;12.43;;;;;;;11.26;76.17;96862.00;4991183;28;20483;-74
2023/10/20 04:21:13;;;;;;;69.45;13.88;;;;;;;11.26;76.40;96867.25;4972389;28;20090;-75
2023/10/20 04:23:40;;;;;;;44.20;13.55;;;;;;;11.25;76.37;96862.16;4979083;28;20057;-77
2023/10/20 04:26:33;;;;;;;53.55;12.93;;;;;;;11.22;76.26;96863.31;4991530;28;20057;-76
2023/10/20 04:29:13;;;;;;;109.47;16.00;;;;;;;11.23;76.11;96857.06;4983500;28;20126;-73
2023/10/20 04:53:05;;;;;;;68.20;13.57;;;;;;;11.16;76.34;96816.56;4975715;28;20062;-76
2023/10/20 05:01:07;;;;;;;40.42;12.45;;;;;;;11.13;76.38;96824.78;4986293;28;20039;-76
2023/10/20 05:03:46;;;;;;;69.57;13.27;;;;;;;11.12;76.46;96838.94;4994811;28;20101;-76
2023/10/20 05:06:22;;;;;;;29.63;12.27;;;;;;;11.10;76.38;96819.88;4994720;28;20050;-74
2023/10/20 05:08:49;;;;;;;77.15;14.18;;;;;;;11.08;76.51;96823.50;4994586;28;20046;-76
2023/10/20 05:11:16;;;;;;;96.35;15.45;;;;;;;11.08;76.68;96810.31;4985824;28;20153;-78
2023/10/20 05:14:18;;;;;;;49.53;12.77;;;;;;;11.02;76.54;96808.34;4994058;28;20050;-75
2023/10/20 05:17:25;;;;;;;50.90;13.32;;;;;;;11.03;76.41;96798.63;4975949;28;20058;-75
2023/10/20 05:19:53;;;;;;;;;;;;;;;11.06;76.51;96796.50;4985460;28;20173;-74
2023/10/20 05:22:20;;;;;;;37.72;11.27;;;;;;;11.10;76.24;96789.06;4994818;28;19922;-74
2023/10/20 05:24:46;;;;;;;39.33;12.38;;;;;;;11.08;76.42;96798.97;4994616;28;20050;-75
2023/10/20 05:27:13;;;;;;;37.00;12.20;;;;;;;11.04;76.39;96802.91;4994464;28;20101;-79
2023/10/20 05:29:39;;;;;;;77.25;13.77;;;;;;;11.02;76.63;96803.06;4990301;28;20067;-77
2023/10/20 05:32:06;;;;;;;34.17;12.15;;;;;;;11.01;76.79;96772.47;4994767;28;20109;-75
2023/10/20 05:34:34;;;;;;;37.25;11.93;;;;;;;11.02;76.76;96765.38;4986294;28;20105;-81
2023/10/20 05:37:01;;;;;;;43.83;11.68;;;;;;;11.01;76.64;96748.78;4973838;28;20495;-75
2023/10/20 05:39:28;;;;;;;31.45;11.65;;;;;;;11.01;76.52;96753.22;4974686;28;20086;-75
2023/10/20 05:41:54;;;;;;;27.60;11.50;;;;;;;10.99;76.53;96758.63;4981474;28;20047;-76
2023/10/20 05:44:23;;;;;;;40.58;10.55;;;;;;;10.99;76.47;96748.13;4973394;28;20050;-74
2023/10/20 05:46:50;;;;;;;35.20;11.50;;;;;;;10.98;76.40;96746.47;4983273;28;20102;-75
2023/10/20 05:49:17;;;;;;;29.73;9.95;;;;;;;10.97;76.43;96754.53;4973556;28;20057;-73
2023/10/20 05:51:45;;;;;;;37.58;11.77;;;;;;;10.95;76.46;96755.53;4991340;28;20475;-75
2023/10/20 05:54:11;;;;;;;38.58;10.68;;;;;;;10.94;76.37;96747.78;4992315;28;20061;-74
2023/10/20 05:56:38;;;;;;;49.65;10.82;;;;;;;10.91;76.34;96741.06;4985209;28;20053;-73
2023/10/20 05:59:04;;;;;;;45.97;11.80;;;;;;;10.91;76.38;96737.59;4992570;28;20110;-75
2023/10/20 06:01:31;;;;;;;47.72;11.20;;;;;;;10.90;76.37;96733.31;4983576;28;20126;-75
2023/10/20 06:03:58;;;;;;;24.45;10.38;;;;;;;10.86;76.41;96722.31;4974707;28;20137;-74
2023/10/20 06:06:24;;;;;;;22.85;9.60;;;;;;;10.85;76.38;96717.22;4981707;28;20073;-74
2023/10/20 06:08:51;;;;;;;29.05;10.48;;;;;;;10.84;76.38;96716.38;4974722;28;20053;-75
2023/10/20 06:11:17;;;;;;;27.52;9.95;;;;;;;10.82;76.42;96707.84;4979475;28;20137;-74
2023/10/20 06:13:44;;;;;;;30.17;10.43;;;;;;;10.81;76.55;96699.09;4993824;28;20454;-75
2023/10/20 06:16:10;;;;;;;13.90;9.88;;;;;;;10.79;76.52;96702.91;4989317;28;20068;-75
2023/10/20 06:18:40;;;;;;;17.13;9.98;;;;;;;10.78;76.36;96696.81;4988387;28;20054;-76
2023/10/20 06:21:16;;;;;;;14.00;8.57;;;;;;;10.75;76.48;96706.84;4987879;28;20705;-74
2023/10/20 06:23:43;;;;;;;15.55;9.32;;;;;;;10.77;76.53;96702.25;4973126;28;20050;-73
2023/10/20 06:26:10;;;;;;;12.52;8.05;;;;;;;10.76;76.57;96708.50;4988480;28;20156;-76
2023/10/20 06:28:37;;;;;;;11.43;7.68;;;;;;;10.73;76.52;96680.69;4976706;28;20097;-76
2023/10/20 06:31:51;;;;;;;9.00;6.57;;;;;;;10.73;76.61;96687.78;4974820;28;20055;-76
2023/10/20 06:34:09;;;;;;;9.50;6.45;;;;;;;10.73;76.42;96682.53;4983766;28;20419;-74
2023/10/20 06:36:37;;;;;;;8.50;5.70;;;;;;;10.72;76.34;96683.50;4980040;28;20499;-75
2023/10/20 06:39:12;;;;;;;8.57;5.22;;;;;;;10.68;76.47;96702.25;4973668;28;20082;-75
2023/10/20 06:41:39;;;;;;;9.43;6.45;;;;;;;10.68;76.46;96704.03;4976814;28;20104;-76
2023/10/20 06:44:06;;;;;;;9.38;6.20;;;;;;;10.66;76.60;96696.31;4993000;28;20081;-75
2023/10/20 06:46:33;;;;;;;9.63;5.63;;;;;;;10.65;76.57;96684.16;4992931;28;20069;-75
2023/10/20 06:48:59;;;;;;;7.82;5.75;;;;;;;10.66;76.54;96687.63;4992793;28;20113;-75
2023/10/20 06:51:26;;;;;;;7.47;5.20;;;;;;;10.64;76.51;96692.19;4993103;28;20050;-75
2023/10/20 06:53:52;;;;;;;8.52;5.85;;;;;;;10.63;76.59;96680.03;4992962;28;20086;-75
2023/10/20 06:56:20;;;;;;;6.68;4.55;;;;;;;10.62;76.59;96667.88;4992895;28;20450;-77
2023/10/20 06:58:53;;;;;;;;;;;;;;;10.61;76.60;96672.31;4993264;28;20090;-76
2023/10/20 07:01:19;;;;;;;5.78;4.43;;;;;;;10.64;76.22;96665.91;4992735;28;20026;-73
2023/10/20 07:03:46;;;;;;;6.43;4.47;;;;;;;10.62;76.32;96665.25;4992851;28;20053;-74
2023/10/20 07:06:13;;;;;;;7.00;4.50;;;;;;;10.58;76.21;96666.56;4991651;28;20495;-75
2023/10/20 07:08:40;;;;;;;7.10;4.93;;;;;;;10.58;76.50;96669.19;4992512;28;20054;-74
2023/10/20 07:11:06;;;;;;;9.10;4.78;;;;;;;10.55;76.47;96668.53;4992504;28;20487;-74
2023/10/20 07:13:33;;;;;;;6.03;4.00;;;;;;;10.55;76.67;96679.03;4992620;28;20506;-75
2023/10/20 07:16:00;;;;;;;7.10;4.63;;;;;;;10.54;76.60;96680.03;4992184;28;20058;-76
2023/10/20 07:18:27;;;;;;;5.78;4.25;;;;;;;10.55;76.79;96665.09;4992518;28;20093;-73
2023/10/20 07:20:55;;;;;;;5.63;4.35;;;;;;;10.54;76.75;96666.91;4992612;28;20054;-73
2023/10/20 07:23:24;;;;;;;7.78;4.32;;;;;;;10.55;76.51;96668.53;4992426;28;20054;-75
2023/10/20 07:25:52;;;;;;;7.10;4.57;;;;;;;10.55;76.66;96665.91;4992314;28;20046;-73
2023/10/20 07:28:19;;;;;;;6.53;4.40;;;;;;;10.55;76.61;96670.34;4991994;28;20445;-75
2023/10/20 07:30:45;;;;;;;5.32;4.05;;;;;;;10.54;76.66;96681.84;4992174;28;20050;-76
2023/10/20 07:33:12;;;;;;;7.70;4.68;;;;;;;10.54;76.80;96680.03;4992118;28;20511;-73
2023/10/20 07:35:39;;;;;;;5.75;4.07;;;;;;;10.54;76.58;96681.84;4992205;28;20096;-76
2023/10/20 07:38:07;;;;;;;5.63;4.13;;;;;;;10.53;76.53;96678.41;4991888;28;20061;-76
2023/10/20 07:40:37;;;;;;;8.45;4.47;;;;;;;10.54;76.67;96682.66;4992105;28;20144;-76
2023/10/20 07:43:06;;;;;;;8.30;4.70;;;;;;;10.54;76.62;96671.31;4991817;28;20060;-75
2023/10/20 07:45:43;;;;;;;8.63;4.75;;;;;;;10.50;76.35;96670.84;4992136;28;20050;-73
2023/10/20 07:48:10;;;;;;;7.35;4.45;;;;;;;10.53;76.42;96675.78;4991931;28;20062;-76
2023/10/20 07:50:37;;;;;;;7.85;4.65;;;;;;;10.53;76.67;96672.31;4990635;28;20491;-77
2023/10/20 07:53:05;;;;;;;5.68;4.07;;;;;;;10.51;76.48;96672.47;4991780;28;20133;-74
2023/10/20 07:55:31;;;;;;;6.72;4.35;;;;;;;10.51;76.62;96661.94;4991658;28;20047;-75
2023/10/20 07:58:01;;;;;;;6.57;4.68;;;;;;;10.51;76.62;96661.16;4991586;28;20418;-74
2023/10/20 08:00:29;;;;;;;6.45;4.18;;;;;;;10.50;76.57;96652.41;4991726;28;20392;-75
2023/10/20 08:02:56;;;;;;;4.15;3.75;;;;;;;10.50;76.43;96662.94;4991856;28;20384;-75
2023/10/20 08:05:24;;;;;;;6.68;4.03;;;;;;;10.49;76.54;96666.56;4991658;28;20061;-74
2023/10/20 08:07:53;;;;;;;4.75;3.30;;;;;;;10.49;76.57;96668.38;4991437;28;20065;-76
2023/10/20 08:10:21;;;;;;;4.97;3.78;;;;;;;10.47;76.54;96660.63;4990549;28;20133;-74
2023/10/20 08:12:48;;;;;;;5.35;3.80;;;;;;;10.47;76.60;96658.00;4991759;28;20093;-76
2023/10/20 08:15:16;;;;;;;4.18;3.20;;;;;;;10.47;76.36;96657.19;4990461;28;20054;-75
2023/10/20 08:17:44;;;;;;;3.80;2.80;;;;;;;10.47;76.61;96657.19;4991051;28;20054;-76
2023/10/20 08:20:12;;;;;;;6.03;3.22;;;;;;;10.47;76.49;96660.63;4991511;28;20145;-75
2023/10/20 08:22:39;;;;;;;4.53;2.90;;;;;;;10.48;76.53;96661.47;4990154;28;20046;-74
2023/10/20 08:25:07;;;;;;;4.68;3.35;;;;;;;10.46;76.41;96639.78;4990305;28;20054;-74
2023/10/20 08:27:34;;;;;;;4.13;3.35;;;;;;;10.47;76.29;96644.84;4991426;28;20679;-75
2023/10/20 08:30:00;;;;;;;4.50;2.90;;;;;;;10.47;76.44;96654.56;4991565;28;20141;-76
2023/10/20 08:32:27;;;;;;;3.13;2.67;;;;;;;10.46;76.35;96645.84;4991330;28;20057;-75
2023/10/20 08:34:53;;;;;;;6.03;2.70;;;;;;;10.45;76.36;96638.94;4991419;28;20105;-75
2023/10/20 08:37:20;;;;;;;3.17;2.55;;;;;;;10.45;76.30;96630.22;4991152;28;20054;-78
2023/10/20 08:39:47;;;;;;;3.35;2.40;;;;;;;10.43;76.35;96625.09;4991526;28;20205;-73
2023/10/20 08:42:17;;;;;;;2.42;2.20;;;;;;;10.41;76.36;96638.44;4991408;28;20050;-74
2023/10/20 08:44:45;;;;;;;3.42;2.50;;;;;;;10.42;76.31;96633.97;4991346;28;20046;-75
2023/10/20 08:47:17;;;;;;;3.08;2.20;;;;;;;10.39;76.33;96629.88;4991427;28;20050;-75
2023/10/20 08:49:46;;;;;;;2.78;2.05;;;;;;;10.41;76.35;96632.34;4991195;28;20495;-75
2023/10/20 08:52:13;;;;;;;3.05;2.22;;;;;;;10.42;76.55;96631.34;4989992;28;20046;-74
2023/10/20 08:54:40;;;;;;;3.10;2.20;;;;;;;10.41;76.35;96630.56;4991274;28;20065;-74
2023/10/20 08:57:08;;;;;;;2.72;2.10;;;;;;;10.42;76.39;96623.47;4991314;28;20058;-75
2023/10/20 08:59:37;;;;;;;2.85;1.83;;;;;;;10.41;76.37;96624.47;4991054;28;20573;-74
2023/10/20 09:02:05;;;;;;;2.67;1.90;;;;;;;10.41;76.25;96614.78;4991105;28;20058;-74
2023/10/20 09:04:31;;;;;;;2.35;1.90;;;;;;;10.40;76.30;96613.09;4991304;28;20054;-75
2023/10/20 09:07:11;;;;;;;2.92;2.20;;;;;;;10.37;76.06;96605.56;4990133;28;20042;-77
2023/10/20 09:09:38;;;;;;;2.72;1.80;;;;;;;10.40;76.31;96620.19;4989843;28;20050;-75
2023/10/20 09:12:08;;;;;;;2.67;1.90;;;;;;;10.40;76.42;96623.63;4990988;28;20109;-74
2023/10/20 09:14:41;;;;;;;1.75;1.58;;;;;;;10.39;76.31;96614.09;4991060;28;20054;-76
2023/10/20 09:17:11;;;;;;;2.70;1.85;;;;;;;10.41;76.33;96620.03;4991160;28;20077;-75
2023/10/20 09:19:38;;;;;;;2.40;1.85;;;;;;;10.41;76.43;96613.94;4991079;28;20137;-74
2023/10/20 09:22:05;;;;;;;2.03;1.77;;;;;;;10.40;76.33;96621.00;4991063;28;20578;-76
2023/10/20 09:24:32;;;;;;;1.85;1.40;;;;;;;10.40;76.38;96613.09;4990911;28;20097;-75
2023/10/20 09:26:59;;;;;;;2.90;1.50;;;;;;;10.41;76.35;96616.56;4989768;28;20097;-74
2023/10/20 09:29:29;;;;;;;1.42;1.30;;;;;;;10.40;76.33;96610.47;4993002;28;20125;-75
2023/10/20 09:31:59;;;;;;;1.30;1.20;;;;;;;10.40;76.25;96617.56;4994630;28;20050;-75
2023/10/20 09:34:26;;;;;;;1.50;1.40;;;;;;;10.39;76.26;96616.72;4993441;28;20133;-75
2023/10/20 09:36:56;;;;;;;1.55;1.25;;;;;;;10.40;76.42;96628.09;4994415;28;20050;-73
2023/10/20 09:39:37;;;;;;;1.98;1.40;;;;;;;10.37;76.32;96625.78;4994233;28;20121;-76
2023/10/20 09:42:05;;;;;;;3.08;1.30;;;;;;;10.40;76.47;96622.81;4994267;28;20511;-74
2023/10/20 09:44:46;;;;;;;2.00;1.45;;;;;;;10.39;76.26;96610.66;4994095;28;20054;-77
2023/10/20 09:47:21;;;;;;;1.55;1.30;;;;;;;10.40;76.25;96610.47;4993139;28;20090;-78
2023/10/20 09:49:51;;;;;;;1.30;1.20;;;;;;;10.42;76.50;96608.53;4992982;28;20626;-78
2023/10/20 09:52:19;;;;;;;1.92;1.00;;;;;;;10.44;76.56;96621.53;4992749;28;20054;-74
2023/10/20 09:54:50;;;;;;;2.65;1.30;;;;;;;10.45;76.57;96615.28;4994439;28;20112;-75
2023/10/20 09:57:19;;;;;;;1.20;0.93;;;;;;;10.46;76.68;96627.44;4994079;28;20051;-75
2023/10/20 09:59:53;;;;;;;1.42;1.00;;;;;;;10.46;76.32;96610.84;4994067;28;20050;-75
2023/10/20 10:02:27;;;;;;;1.13;1.02;;;;;;;10.45;76.24;96617.91;4993950;28;20051;-75
2023/10/20 10:04:56;;;;;;;2.97;1.08;;;;;;;10.49;76.53;96616.59;4992457;28;20554;-76
2023/10/20 10:07:33;;;;;;;0.95;0.85;;;;;;;10.46;76.30;96619.56;4993733;28;20064;-76
2023/10/20 10:10:02;;;;;;;1.30;1.10;;;;;;;10.50;76.55;96620.88;4993988;28;20451;-75
2023/10/20 10:12:33;;;;;;;1.00;0.90;;;;;;;10.50;76.57;96615.59;4993812;28;20064;-74
2023/10/20 10:15:12;;;;;;;0.98;0.77;;;;;;;10.50;76.35;96614.81;4993633;28;20499;-77
2023/10/20 10:17:46;;;;;;;1.13;0.80;;;;;;;10.50;76.41;96607.72;5058875;23;20050;-81
2023/10/20 10:20:27;;;;;;;0.88;0.82;;;;;;;10.48;76.37;96599.19;4992908;28;20057;-80
2023/10/20 10:23:01;;;;;;;0.70;0.70;;;;;;;10.50;76.38;96601.66;4992445;28;20058;-81
2023/10/20 10:25:41;;;;;;;1.05;0.80;;;;;;;10.49;76.10;96598.19;4993428;28;20069;-81
2023/10/20 10:28:18;;;;;;;0.70;0.70;;;;;;;10.50;76.46;96605.09;4993640;28;20078;-81
2023/10/20 10:30:48;;;;;;;1.02;0.80;;;;;;;10.53;76.72;96603.94;4993611;28;20467;-81
2023/10/20 10:33:20;;;;;;;1.30;0.85;;;;;;;10.52;76.50;96603.13;4992647;28;20046;-82
2023/10/20 10:35:48;;;;;;;0.88;0.85;;;;;;;10.56;76.57;96608.88;4992080;28;20514;-82
2023/10/20 10:38:22;;;;;;;0.80;0.80;;;;;;;10.53;76.31;96607.41;4993096;28;20046;-81
2023/10/20 10:40:51;;;;;;;0.60;0.52;;;;;;;10.55;76.37;96604.59;4993320;28;20077;-81
2023/10/20 10:43:19;;;;;;;0.98;0.90;;;;;;;10.55;76.33;96600.16;4993202;28;20133;-85
2023/10/20 10:45:52;;;;;;;1.50;0.95;;;;;;;10.52;75.88;96605.75;4993087;28;20086;-82
2023/10/20 10:48:24;;;;;;;0.90;0.88;;;;;;;10.53;75.92;96603.94;4992835;28;20084;-82
2023/10/20 10:50:51;;;;;;;0.75;0.75;;;;;;;10.52;76.09;96607.56;4993075;28;20110;-82
2023/10/20 10:53:17;;;;;;;0.98;0.70;;;;;;;10.51;75.99;96604.09;4993403;28;20050;-82
2023/10/20 10:55:45;;;;;;;0.60;0.60;;;;;;;10.48;76.15;96575.53;4993126;28;20050;-81
2023/10/20 10:58:13;;;;;;;1.17;0.80;;;;;;;10.45;76.11;96575.84;4992927;28;20408;-82
2023/10/20 11:00:43;;;;;;;0.60;0.60;;;;;;;10.45;76.30;96570.59;4992850;28;20490;-82
2023/10/20 11:03:11;;;;;;;0.75;0.70;;;;;;;10.44;76.46;96563.69;4992824;28;20566;-83
2023/10/20 11:05:39;;;;;;;0.50;0.50;;;;;;;10.45;76.51;96569.75;4992968;28;20047;-82
2023/10/20 11:08:07;;;;;;;0.75;0.65;;;;;;;10.45;76.45;96572.38;4992880;28;20101;-81
2023/10/20 11:10:37;;;;;;;0.60;0.60;;;;;;;10.43;76.34;96546.22;4991722;28;20054;-82
2023/10/20 11:13:06;;;;;;;0.60;0.60;;;;;;;10.43;76.14;96551.47;4991565;28;20145;-82
2023/10/20 11:15:33;;;;;;;0.95;0.60;;;;;;;10.43;76.49;96543.59;4992541;28;20050;-82
2023/10/20 11:18:01;;;;;;;0.55;0.55;;;;;;;10.42;76.30;96542.78;4992605;28;20137;-82
2023/10/20 11:20:32;;;;;;;0.85;0.70;;;;;;;10.42;76.06;96544.59;4992670;28;20077;-82
2023/10/20 11:23:04;;;;;;;1.77;0.63;;;;;;;10.42;76.28;96536.69;4992723;28;20042;-81
2023/10/20 11:25:30;;;;;;;0.68;0.68;;;;;;;10.41;76.48;96516.66;4992498;28;20054;-80
2023/10/20 11:27:57;;;;;;;1.02;0.63;;;;;;;10.41;76.44;96499.09;4992212;28;20057;-82
2023/10/20 11:30:24;;;;;;;0.70;0.60;;;;;;;10.42;76.32;96502.50;4992471;28;20050;-81
2023/10/20 11:32:54;;;;;;;1.58;0.70;;;;;;;10.40;76.23;96491.34;4992657;28;20073;-82
2023/10/20 11:35:24;;;;;;;0.73;0.60;;;;;;;10.41;76.36;96482.47;4992458;28;20046;-81
2023/10/20 11:37:52;;;;;;;0.60;0.60;;;;;;;10.41;76.43;96464.06;4992333;28;20089;-82
2023/10/20 11:40:19;;;;;;;1.15;0.70;;;;;;;10.40;76.44;96465.88;4992377;28;20062;-81
2023/10/20 11:42:48;;;;;;;0.63;0.63;;;;;;;10.42;76.34;96468.31;4991072;28;20141;-82
2023/10/20 11:45:16;;;;;;;0.75;0.70;;;;;;;10.41;76.59;96464.06;4992274;28;20085;-82
2023/10/20 11:47:43;;;;;;;0.60;0.60;;;;;;;10.41;76.69;96461.44;4992115;28;20054;-81
2023/10/20 11:50:10;;;;;;;0.70;0.70;;;;;;;10.42;76.67;96465.69;4992171;28;20050;-82
2023/10/20 11:52:41;;;;;;;1.83;0.80;;;;;;;10.41;76.56;96471.97;4991781;28;20101;-82
2023/10/20 11:55:09;;;;;;;0.50;0.50;;;;;;;10.45;76.68;96456.69;4992272;28;20130;-82
2023/10/20 11:57:36;;;;;;;0.60;0.52;;;;;;;10.45;76.52;96457.50;4993212;28;20049;-84